Time;durP1;ratioP1;P1;durP2;ratioP2;P2;SDS_P1;SDS_P2;PMS_P1;PMS_P2;Temp;Humidity;BMP_temperature;BMP_pressure;BME280_temperature;BME280_humidity;BME280_pressure;Samples;Min_cycle;Max_cycle;Signal;HPM_P1;HPM_P2
2023/12/04 00:00:11;;;;;;;13.50;11.30;;;;;;;-4.73;100.00;98847.94;15279995;19;20018;-50
2023/12/04 00:05:35;;;;;;;11.55;10.10;;;;;;;-4.69;100.00;98844.31;15283305;19;20022;-50
2023/12/04 00:11:00;;;;;;;12.40;10.25;;;;;;;-4.68;100.00;98839.91;15280362;19;20022;-48
2023/12/04 00:16:27;;;;;;;13.65;11.48;;;;;;;-4.68;100.00;98837.25;15278897;19;20793;-50
2023/12/04 00:21:52;;;;;;;12.10;10.50;;;;;;;-4.67;100.00;98829.34;15279879;19;20085;-50
2023/12/04 00:27:16;;;;;;;12.98;10.50;;;;;;;-4.66;100.00;98820.53;15273934;19;20019;-50
2023/12/04 00:32:43;;;;;;;11.88;9.98;;;;;;;-4.65;100.00;98822.25;15278385;19;20017;-51
2023/12/04 00:38:08;;;;;;;12.20;9.77;;;;;;;-4.64;100.00;98802.91;15278600;19;20025;-50
2023/12/04 00:43:33;;;;;;;11.23;9.60;;;;;;;-4.57;100.00;98790.41;15291158;19;20031;-48
2023/12/04 00:49:00;;;;;;;11.52;10.32;;;;;;;-4.52;100.00;98791.09;15294350;19;20018;-51
2023/12/04 00:54:25;;;;;;;11.13;9.35;;;;;;;-4.47;100.00;98788.28;15295929;19;20514;-48
2023/12/04 00:59:49;;;;;;;10.85;9.32;;;;;;;-4.46;100.00;98795.28;15287239;19;20015;-47
2023/12/04 01:05:16;;;;;;;11.73;10.15;;;;;;;-4.43;100.00;98789.03;15293665;19;20018;-51
2023/12/04 01:10:42;;;;;;;11.20;9.48;;;;;;;-4.42;100.00;98781.09;15292149;19;20368;-53
2023/12/04 01:16:08;;;;;;;11.13;9.38;;;;;;;-4.39;100.00;98778.34;15291621;19;20010;-48
2023/12/04 01:21:36;;;;;;;11.73;9.90;;;;;;;-4.40;100.00;98778.41;15290156;19;20487;-49
2023/12/04 01:27:01;;;;;;;10.60;8.68;;;;;;;-4.41;100.00;98769.63;15291274;19;20019;-49
2023/12/04 01:32:25;;;;;;;10.20;8.90;;;;;;;-4.35;100.00;98756.25;15286385;19;20018;-53
2023/12/04 01:37:53;;;;;;;9.10;7.97;;;;;;;-4.28;100.00;98758.63;15291521;19;20014;-49
2023/12/04 01:43:18;;;;;;;8.93;8.02;;;;;;;-4.24;100.00;98737.44;15290344;19;20054;-50
2023/12/04 01:48:43;;;;;;;9.85;8.27;;;;;;;-4.20;100.00;98732.91;15291311;19;20015;-48
2023/12/04 01:54:13;;;;;;;9.65;8.18;;;;;;;-4.16;100.00;98739.75;15289556;19;20450;-49
2023/12/04 01:59:39;;;;;;;8.43;7.63;;;;;;;-4.16;100.00;98713.44;15288024;19;20006;-50
2023/12/04 02:05:11;;;;;;;9.30;8.10;;;;;;;-4.14;100.00;98706.34;15291979;19;20025;-48
2023/12/04 02:10:40;;;;;;;8.48;7.38;;;;;;;-4.14;100.00;98700.25;15288916;19;20082;-48
2023/12/04 02:16:07;;;;;;;7.85;6.70;;;;;;;-4.18;100.00;98695.09;15288402;19;20014;-50
2023/12/04 02:21:32;;;;;;;8.27;6.68;;;;;;;-4.19;100.00;98688.13;15288368;19;20018;-50
2023/12/04 02:27:04;;;;;;;8.80;6.95;;;;;;;-4.21;100.00;98674.16;15285759;19;20022;-51
2023/12/04 02:32:32;;;;;;;8.27;6.88;;;;;;;-4.20;100.00;98659.25;15277693;19;20018;-50
2023/12/04 02:37:58;;;;;;;7.75;6.15;;;;;;;-4.19;100.00;98656.53;15285189;19;20478;-51
2023/12/04 02:43:25;;;;;;;7.47;6.30;;;;;;;-4.14;100.00;98658.97;15288820;19;20014;-50
2023/12/04 02:48:50;;;;;;;7.45;6.55;;;;;;;-4.09;100.00;98654.41;15286143;19;20019;-52
2023/12/04 02:54:15;;;;;;;7.88;6.75;;;;;;;-4.04;100.00;98660.31;15288387;19;20374;-51
2023/12/04 02:59:42;;;;;;;6.90;6.20;;;;;;;-3.98;100.00;98658.34;15283811;19;20043;-52
2023/12/04 03:05:08;;;;;;;6.55;5.85;;;;;;;-3.96;100.00;98646.00;15278792;19;20035;-48
2023/12/04 03:10:32;;;;;;;7.22;6.53;;;;;;;-3.93;100.00;98654.59;15281919;19;20019;-48
2023/12/04 03:15:59;;;;;;;7.85;6.75;;;;;;;-3.92;100.00;98632.63;15284244;19;20022;-47
2023/12/04 03:21:24;;;;;;;8.02;6.72;;;;;;;-3.90;100.00;98633.44;15282671;19;20988;-48
2023/12/04 03:26:49;;;;;;;6.80;5.97;;;;;;;-3.87;100.00;98621.91;15283050;19;20433;-51
2023/12/04 03:32:16;;;;;;;6.72;5.75;;;;;;;-3.84;100.00;98629.69;15283295;19;20028;-49
2023/12/04 03:37:43;;;;;;;6.88;5.85;;;;;;;-3.81;100.00;98620.78;15276613;19;20019;-50
2023/12/04 03:43:07;;;;;;;6.82;5.78;;;;;;;-3.81;100.00;98613.72;15283797;19;20006;-49
2023/12/04 03:48:34;;;;;;;7.80;5.85;;;;;;;-3.80;100.00;98597.03;15279616;19;20094;-52
2023/12/04 03:53:59;;;;;;;6.72;6.03;;;;;;;-3.78;100.00;98600.44;15271214;19;20611;-52
2023/12/04 03:59:24;;;;;;;7.07;5.75;;;;;;;-3.75;100.00;98594.19;15271263;19;20037;-52
2023/12/04 04:04:51;;;;;;;7.30;5.60;;;;;;;-3.75;100.00;98587.16;15280147;19;20035;-51
2023/12/04 04:10:16;;;;;;;7.80;5.82;;;;;;;-3.76;100.00;98588.06;15274436;19;20759;-54
2023/12/04 04:15:41;;;;;;;6.65;5.65;;;;;;;-3.78;100.00;98575.91;15273696;19;20531;-52
2023/12/04 04:21:09;;;;;;;6.55;5.72;;;;;;;-3.82;100.00;98575.16;15268054;19;20021;-51
2023/12/04 04:26:33;;;;;;;6.75;5.55;;;;;;;-3.84;100.00;98574.41;15273007;19;20031;-54
2023/12/04 04:31:58;;;;;;;6.63;5.90;;;;;;;-3.86;100.00;98568.34;15274351;19;20624;-52
2023/12/04 04:37:25;;;;;;;7.25;6.20;;;;;;;-3.89;100.00;98560.56;15280830;19;20023;-51
2023/12/04 04:42:50;;;;;;;7.35;5.53;;;;;;;-3.90;100.00;98548.34;15275660;19;20336;-49
2023/12/04 04:48:15;;;;;;;6.82;5.80;;;;;;;-3.94;100.00;98546.78;15278469;19;20462;-49
2023/12/04 04:53:42;;;;;;;6.95;5.97;;;;;;;-3.95;100.00;98542.44;15280748;19;20543;-50
2023/12/04 04:59:07;;;;;;;7.10;5.80;;;;;;;-3.97;100.00;98539.00;15286226;19;20359;-50
2023/12/04 05:04:33;;;;;;;7.28;5.97;;;;;;;-3.99;100.00;98530.31;15280606;19;20035;-49
2023/12/04 05:10:00;;;;;;;7.45;5.75;;;;;;;-4.05;100.00;98518.28;15277274;19;20085;-55
2023/12/04 05:15:26;;;;;;;6.85;6.10;;;;;;;-4.09;100.00;98509.69;15271465;19;20010;-51
2023/12/04 05:20:50;;;;;;;6.32;5.53;;;;;;;-4.13;100.00;98502.00;15275422;19;20010;-49
2023/12/04 05:26:17;;;;;;;7.15;5.85;;;;;;;-4.15;100.00;98502.03;15278091;19;20101;-52
2023/12/04 05:31:42;;;;;;;6.13;5.53;;;;;;;-4.21;100.00;98489.16;15287518;19;20805;-50
2023/12/04 05:37:07;;;;;;;6.88;5.47;;;;;;;-4.24;100.00;98484.03;15286803;19;20565;-48
2023/12/04 05:42:34;;;;;;;6.07;5.25;;;;;;;-4.27;100.00;98489.41;15287312;19;20014;-53
2023/12/04 05:47:59;;;;;;;6.70;5.78;;;;;;;-4.30;100.00;98466.75;15286820;19;20367;-49
2023/12/04 05:53:23;;;;;;;6.95;5.60;;;;;;;-4.35;100.00;98466.94;15293034;19;20561;-50
2023/12/04 05:58:50;;;;;;;5.90;5.22;;;;;;;-4.45;100.00;98454.25;15289128;19;20619;-54
2023/12/04 06:04:15;;;;;;;5.90;5.25;;;;;;;-4.52;100.00;98458.91;15291385;19;20014;-52
2023/12/04 06:09:40;;;;;;;6.07;5.28;;;;;;;-4.58;100.00;98460.03;15287404;19;20074;-52
2023/12/04 06:15:07;;;;;;;5.68;4.85;;;;;;;-4.62;100.00;98455.84;15289247;19;20367;-52
2023/12/04 06:20:32;;;;;;;5.70;5.10;;;;;;;-4.65;100.00;98453.34;15283007;19;20029;-49
2023/12/04 06:25:57;;;;;;;5.32;4.82;;;;;;;-4.66;100.00;98441.97;15290301;19;20020;-52
2023/12/04 06:31:25;;;;;;;5.53;4.50;;;;;;;-4.66;100.00;98426.19;15286436;19;20042;-51
2023/12/04 06:36:51;;;;;;;5.78;4.95;;;;;;;-4.64;100.00;98424.34;15281518;19;20029;-49
2023/12/04 06:42:17;;;;;;;5.43;4.40;;;;;;;-4.64;100.00;98429.59;15283965;19;20412;-50
2023/12/04 06:47:46;;;;;;;5.40;4.60;;;;;;;-4.61;100.00;98417.25;15287795;19;20016;-51
2023/12/04 06:53:11;;;;;;;4.68;4.05;;;;;;;-4.57;100.00;98416.19;15284362;19;20010;-50
2023/12/04 06:58:35;;;;;;;5.40;4.05;;;;;;;-4.53;100.00;98417.78;15283937;19;20022;-53
2023/12/04 07:04:09;;;;;;;5.75;4.55;;;;;;;-4.51;100.00;98422.06;15286294;19;20024;-52
2023/12/04 07:09:33;;;;;;;4.72;4.20;;;;;;;-4.50;100.00;98410.63;15285578;19;20018;-51
2023/12/04 07:14:59;;;;;;;5.40;4.05;;;;;;;-4.44;100.00;98411.25;15285908;19;20436;-52
2023/12/04 07:20:26;;;;;;;5.25;4.00;;;;;;;-4.41;100.00;98411.13;15282976;19;20471;-53
2023/12/04 07:25:51;;;;;;;4.35;3.95;;;;;;;-4.35;100.00;98424.84;15280774;19;20833;-53
2023/12/04 07:31:16;;;;;;;4.70;4.20;;;;;;;-4.28;100.00;98419.31;15284304;19;20010;-48
2023/12/04 07:36:44;;;;;;;4.40;3.97;;;;;;;-4.18;100.00;98425.91;15283723;19;20523;-52
2023/12/04 07:42:09;;;;;;;4.70;4.00;;;;;;;-4.09;100.00;98414.94;15284075;19;20097;-49
2023/12/04 07:47:40;;;;;;;4.55;4.05;;;;;;;-3.98;100.00;98416.25;15272105;19;20647;-58
2023/12/04 07:53:09;;;;;;;4.25;3.85;;;;;;;-3.91;100.00;98423.78;15282458;19;20017;-57
2023/12/04 07:58:34;;;;;;;4.47;3.72;;;;;;;-3.84;100.00;98420.84;15279361;19;20019;-57
2023/12/04 08:03:59;;;;;;;4.20;3.67;;;;;;;-3.79;100.00;98409.19;15282286;19;20025;-58
2023/12/04 08:09:26;;;;;;;4.55;3.90;;;;;;;-3.71;100.00;98408.84;15279848;19;20015;-58
2023/12/04 08:14:52;;;;;;;4.50;4.10;;;;;;;-3.63;100.00;98405.84;15281882;19;20019;-57
2023/12/04 08:20:17;;;;;;;4.32;3.40;;;;;;;-3.56;100.00;98391.44;15279895;19;20010;-57
2023/12/04 08:25:57;;;;;;;7.75;4.03;;;;;;;-3.49;100.00;98382.34;15278998;19;20849;-57
2023/12/04 08:31:21;;;;;;;4.00;3.60;;;;;;;-3.39;100.00;98379.25;15276237;19;20017;-58
2023/12/04 08:36:46;;;;;;;4.53;3.90;;;;;;;-3.29;100.00;98377.88;15280834;19;20014;-56
2023/12/04 08:42:13;;;;;;;5.28;4.55;;;;;;;-3.19;100.00;98373.84;15280340;19;20015;-58
2023/12/04 08:47:48;;;;;;;4.65;4.15;;;;;;;-3.03;100.00;98375.75;15278243;19;20015;-58
2023/12/04 08:53:14;;;;;;;4.88;4.22;;;;;;;-2.91;100.00;98382.16;15282183;19;20014;-57
2023/12/04 08:58:41;;;;;;;4.78;4.15;;;;;;;-2.81;100.00;98389.53;15277860;19;20015;-56
2023/12/04 09:04:06;;;;;;;5.07;4.28;;;;;;;-2.70;100.00;98391.59;15286296;19;20024;-58
2023/12/04 09:09:30;;;;;;;4.63;3.90;;;;;;;-2.57;100.00;98373.38;15291082;19;20014;-57
2023/12/04 09:15:06;;;;;;;4.85;4.32;;;;;;;-2.45;100.00;98360.47;15295747;19;20045;-57
2023/12/04 09:20:31;;;;;;;5.00;4.30;;;;;;;-2.31;100.00;98360.59;15315913;19;20014;-59
2023/12/04 09:25:55;;;;;;;4.18;3.78;;;;;;;-2.22;100.00;98360.13;15292579;19;20014;-59
2023/12/04 09:31:22;;;;;;;3.80;3.40;;;;;;;-2.12;100.00;98355.19;15291009;19;20534;-57
2023/12/04 09:36:48;;;;;;;3.65;3.35;;;;;;;-1.94;100.00;98358.59;15291536;19;20015;-56
2023/12/04 09:42:26;;;;;;;3.75;3.40;;;;;;;-1.79;100.00;98353.41;15289149;19;20010;-59
2023/12/04 09:47:54;;;;;;;4.03;3.58;;;;;;;-1.76;100.00;98343.53;15287847;19;20018;-58
2023/12/04 09:53:20;;;;;;;4.25;3.22;;;;;;;-1.67;100.00;98334.22;15294447;19;20030;-55
2023/12/04 09:58:49;;;;;;;3.75;3.25;;;;;;;-1.58;100.00;98328.41;15287696;19;20375;-58
2023/12/04 10:04:16;;;;;;;3.35;2.80;;;;;;;-1.45;100.00;98307.47;15289295;19;20633;-59
2023/12/04 10:09:41;;;;;;;4.97;3.20;;;;;;;-1.40;100.00;98299.25;15288702;19;20035;-58
2023/12/04 10:15:08;;;;;;;4.18;2.97;;;;;;;-1.29;100.00;98293.31;15288407;19;20014;-58
2023/12/04 10:20:35;;;;;;;3.20;2.90;;;;;;;-1.16;100.00;98275.81;15289948;19;20018;-59
2023/12/04 10:26:04;;;;;;;4.25;2.90;;;;;;;-0.97;100.00;98258.88;15288941;19;20018;-58
2023/12/04 10:31:28;;;;;;;3.50;3.15;;;;;;;-0.89;100.00;98255.75;15292096;19;20546;-57
2023/12/04 10:36:55;;;;;;;2.83;2.60;;;;;;;-0.90;100.00;98243.47;15285016;19;20534;-58
2023/12/04 10:42:20;;;;;;;3.00;2.70;;;;;;;-0.84;100.00;98237.78;15287485;19;20013;-59
2023/12/04 10:47:47;;;;;;;3.80;3.03;;;;;;;-0.71;100.00;98243.19;15287634;19;20343;-57
2023/12/04 10:53:16;;;;;;;3.22;2.65;;;;;;;-0.59;100.00;98242.44;15288799;19;20018;-59
2023/12/04 10:58:43;;;;;;;3.13;2.83;;;;;;;-0.49;100.00;98227.69;15285471;19;20079;-58
2023/12/04 11:04:12;;;;;;;2.95;2.67;;;;;;;-0.34;100.00;98228.50;15285144;19;20017;-57
2023/12/04 11:09:41;;;;;;;3.33;2.63;;;;;;;-0.26;100.00;98222.72;15278528;19;20010;-58
2023/12/04 11:15:11;;;;;;;3.35;2.47;;;;;;;-0.28;100.00;98215.81;15286088;19;20074;-57
2023/12/04 11:20:42;;;;;;;2.47;2.28;;;;;;;-0.30;100.00;98217.72;15286620;19;20014;-58
2023/12/04 11:26:10;;;;;;;3.58;2.95;;;;;;;-0.30;100.00;98205.34;15285292;19;20015;-59
2023/12/04 11:31:35;;;;;;;3.47;2.85;;;;;;;-0.32;100.00;98216.03;15287015;19;20021;-57
2023/12/04 11:37:08;;;;;;;2.25;2.03;;;;;;;-0.33;100.00;98200.22;15284138;19;20023;-58
2023/12/04 11:42:36;;;;;;;2.15;1.98;;;;;;;-0.29;100.00;98190.31;15279619;19;20019;-57
2023/12/04 11:48:07;;;;;;;2.60;2.28;;;;;;;-0.25;100.00;98171.47;15282639;19;20018;-58
2023/12/04 11:53:32;;;;;;;3.80;2.50;;;;;;;-0.19;100.00;98152.53;15286363;19;20536;-58
2023/12/04 11:58:59;;;;;;;2.65;2.40;;;;;;;-0.14;100.00;98141.66;15282078;19;20456;-58
2023/12/04 12:04:25;;;;;;;2.60;2.20;;;;;;;-0.10;100.00;98140.50;15284797;19;20026;-58
2023/12/04 12:09:50;;;;;;;4.22;2.13;;;;;;;-0.09;100.00;98134.25;15284238;19;20032;-59
2023/12/04 12:15:17;;;;;;;2.50;2.15;;;;;;;-0.06;100.00;98119.97;15277483;19;20746;-58
2023/12/04 12:20:45;;;;;;;2.45;1.98;;;;;;;-0.05;100.00;98119.84;15282291;19;20344;-59
2023/12/04 12:26:11;;;;;;;3.05;2.03;;;;;;;-0.05;100.00;98109.25;15282387;19;20014;-58
2023/12/04 12:31:38;;;;;;;2.25;2.05;;;;;;;-0.03;100.00;98109.16;15283292;19;20014;-58
2023/12/04 12:37:05;;;;;;;2.25;2.00;;;;;;;-0.06;100.00;98106.72;15278387;19;20360;-58
2023/12/04 12:42:33;;;;;;;2.13;1.83;;;;;;;-0.11;100.00;98104.38;15280797;19;20021;-59
2023/12/04 12:48:01;;;;;;;2.67;2.05;;;;;;;-0.15;100.00;98087.00;15274261;19;20022;-57
2023/12/04 12:53:27;;;;;;;1.90;1.70;;;;;;;-0.15;100.00;98084.34;15277291;19;20013;-59
2023/12/04 12:58:52;;;;;;;2.42;1.88;;;;;;;-0.14;100.00;98067.50;15278243;19;20025;-57
2023/12/04 13:04:23;;;;;;;1.92;1.73;;;;;;;-0.14;100.00;98050.78;15277236;19;20015;-58
2023/12/04 13:09:49;;;;;;;2.17;1.70;;;;;;;-0.19;100.00;98043.16;15276637;19;20074;-58
2023/12/04 13:15:15;;;;;;;2.88;1.67;;;;;;;-0.22;100.00;98032.75;15281447;19;20042;-58
2023/12/04 13:20:43;;;;;;;2.33;2.00;;;;;;;-0.25;100.00;98038.25;15275258;19;20025;-59
2023/12/04 13:26:10;;;;;;;2.10;1.90;;;;;;;-0.24;100.00;98035.53;15280208;19;20082;-59
2023/12/04 13:31:36;;;;;;;1.85;1.67;;;;;;;-0.20;100.00;98039.63;15279547;19;20015;-59
2023/12/04 13:37:04;;;;;;;1.77;1.60;;;;;;;-0.19;100.00;98033.41;15276859;19;20082;-58
2023/12/04 13:48:05;;;;;;;2.63;1.80;;;;;;;-0.19;100.00;98022.81;15276244;19;20037;-57
2023/12/04 13:53:35;;;;;;;2.42;1.90;;;;;;;-0.18;100.00;98018.38;15286816;19;20355;-54
2023/12/04 13:59:01;;;;;;;1.85;1.67;;;;;;;-0.19;100.00;98006.91;15284669;19;20025;-57
2023/12/04 14:04:27;;;;;;;2.53;1.90;;;;;;;-0.21;100.00;97992.09;15284031;19;20014;-60
2023/12/04 14:09:54;;;;;;;2.72;2.05;;;;;;;-0.29;100.00;97979.38;15292179;19;20078;-57
2023/12/04 14:15:19;;;;;;;2.15;1.95;;;;;;;-0.35;100.00;97978.00;15284387;19;20015;-57
2023/12/04 14:20:44;;;;;;;2.22;2.03;;;;;;;-0.39;100.00;97967.72;15287042;19;20041;-58
2023/12/04 14:26:12;;;;;;;2.13;1.92;;;;;;;-0.45;100.00;97958.41;15280826;19;20635;-58
2023/12/04 14:31:36;;;;;;;2.55;2.25;;;;;;;-0.51;100.00;97949.06;15287987;19;20025;-59
2023/12/04 14:37:01;;;;;;;2.67;2.15;;;;;;;-0.54;100.00;97946.63;15286144;19;20034;-58
2023/12/04 14:42:28;;;;;;;2.53;2.33;;;;;;;-0.60;100.00;97936.47;15285862;19;20102;-59
2023/12/04 14:47:59;;;;;;;3.40;2.22;;;;;;;-0.64;100.00;97941.09;15282665;19;20746;-58
2023/12/04 14:53:35;;;;;;;2.95;2.20;;;;;;;-0.68;100.00;97936.97;15286514;19;20057;-58
2023/12/04 15:11:02;;;;;;;3.05;2.50;;;;;;;-0.83;100.00;97916.84;15288168;19;20016;-60
2023/12/04 15:16:35;;;;;;;3.78;2.70;;;;;;;-0.89;100.00;97906.69;15285158;19;20025;-61
2023/12/04 15:22:00;;;;;;;2.60;2.35;;;;;;;-0.94;100.00;97899.88;15284607;19;20354;-61
2023/12/04 15:27:25;;;;;;;2.60;2.40;;;;;;;-0.98;100.00;97892.25;15275825;19;20448;-59
2023/12/04 15:32:53;;;;;;;3.40;2.50;;;;;;;-1.05;100.00;97883.88;15272423;19;20019;-61
2023/12/04 15:38:19;;;;;;;2.92;2.42;;;;;;;-1.09;100.00;97880.59;15271617;19;20814;-58
2023/12/04 15:43:44;;;;;;;3.90;2.50;;;;;;;-1.13;100.00;97862.41;15271628;19;20010;-59
2023/12/04 15:49:19;;;;;;;3.88;2.42;;;;;;;-1.16;100.00;97852.03;15267110;19;20014;-60
2023/12/04 15:54:44;;;;;;;2.47;2.28;;;;;;;-1.22;100.00;97847.13;15271910;19;20021;-58
2023/12/04 16:00:09;;;;;;;3.20;2.80;;;;;;;-1.26;100.00;97855.28;15270369;19;20013;-58
2023/12/04 16:05:37;;;;;;;3.60;2.60;;;;;;;-1.30;100.00;97855.59;15283855;19;20014;-59
2023/12/04 16:11:02;;;;;;;3.50;3.13;;;;;;;-1.34;100.00;97862.84;15279891;19;20025;-60
2023/12/04 16:16:28;;;;;;;3.70;2.78;;;;;;;-1.41;100.00;97854.47;15277154;19;20025;-60
2023/12/04 16:21:55;;;;;;;3.45;2.67;;;;;;;-1.45;100.00;97837.16;15278432;19;20015;-60
2023/12/04 16:27:21;;;;;;;3.33;2.70;;;;;;;-1.47;100.00;97832.91;15277735;19;20094;-60
2023/12/04 16:32:45;;;;;;;3.22;2.80;;;;;;;-1.50;100.00;97827.81;15272810;19;20534;-60
2023/12/04 16:38:13;;;;;;;3.20;2.85;;;;;;;-1.53;100.00;97823.59;15274942;19;20085;-58
2023/12/04 16:43:37;;;;;;;3.10;2.67;;;;;;;-1.57;100.00;97824.72;15275321;19;20018;-59
2023/12/04 16:49:03;;;;;;;3.25;2.95;;;;;;;-1.60;100.00;97814.34;15268893;19;20015;-59
2023/12/04 16:54:30;;;;;;;3.08;2.78;;;;;;;-1.65;100.00;97814.66;15273075;19;20018;-59
2023/12/04 16:59:55;;;;;;;3.33;2.80;;;;;;;-1.68;100.00;97809.56;15249736;19;20090;-59
2023/12/04 17:05:19;;;;;;;3.67;3.17;;;;;;;-1.73;100.00;97809.88;15261283;19;20016;-59
2023/12/04 17:10:48;;;;;;;4.18;3.30;;;;;;;-1.76;100.00;97819.78;15270385;19;20023;-59
2023/12/04 17:16:14;;;;;;;4.28;3.40;;;;;;;-1.75;100.00;97800.38;15259341;19;20029;-57
2023/12/04 17:21:40;;;;;;;4.80;3.75;;;;;;;-1.74;100.00;97794.13;15265391;19;20499;-55
2023/12/04 17:27:08;;;;;;;4.20;3.38;;;;;;;-1.75;100.00;97790.63;15281851;19;20082;-58
2023/12/04 17:32:34;;;;;;;6.25;3.90;;;;;;;-1.75;100.00;97789.81;15284542;19;20025;-56
2023/12/04 17:37:58;;;;;;;4.25;3.45;;;;;;;-1.77;100.00;97781.13;15281040;19;20018;-59
2023/12/04 17:43:26;;;;;;;3.55;3.20;;;;;;;-1.78;100.00;97771.50;15283021;19;20180;-59
2023/12/04 17:48:50;;;;;;;3.97;3.55;;;;;;;-1.77;100.00;97776.72;15303761;19;20078;-59
2023/12/04 17:54:15;;;;;;;4.10;3.53;;;;;;;-1.76;100.00;97769.63;15281931;19;20010;-60
2023/12/04 17:59:42;;;;;;;4.80;3.38;;;;;;;-1.75;100.00;97779.25;15277979;19;20015;-60
2023/12/04 18:05:10;;;;;;;4.60;3.42;;;;;;;-1.77;100.00;97757.38;15279780;19;20114;-59
2023/12/04 18:10:35;;;;;;;4.07;3.67;;;;;;;-1.82;100.00;97756.84;15282942;19;20496;-59
2023/12/04 18:16:03;;;;;;;4.15;3.47;;;;;;;-1.83;100.00;97763.88;15281141;19;20563;-58
2023/12/04 18:21:28;;;;;;;3.88;3.42;;;;;;;-1.82;100.00;97754.19;15281853;19;20360;-60
2023/12/04 18:26:54;;;;;;;5.88;4.07;;;;;;;-1.81;100.00;97753.22;15279858;19;20015;-60
2023/12/04 18:32:22;;;;;;;7.00;4.10;;;;;;;-1.83;100.00;97750.69;15282172;19;20025;-60
2023/12/04 18:37:57;;;;;;;5.15;3.70;;;;;;;-1.84;100.00;97753.44;15276475;19;20023;-60
2023/12/04 18:43:22;;;;;;;5.30;4.80;;;;;;;-1.86;100.00;97754.38;15278503;19;20010;-60
2023/12/04 18:48:52;;;;;;;7.00;4.00;;;;;;;-1.86;100.00;97754.38;15273980;19;20501;-56
2023/12/04 18:54:16;;;;;;;4.47;3.90;;;;;;;-1.83;100.00;97757.78;15273893;19;20500;-58
2023/12/04 18:59:41;;;;;;;4.85;4.35;;;;;;;-1.81;100.00;97750.56;15274440;19;20110;-60
2023/12/04 19:05:08;;;;;;;3.92;3.47;;;;;;;-1.80;100.00;97742.56;15274481;19;20024;-58
2023/12/04 19:10:33;;;;;;;4.72;3.78;;;;;;;-1.78;100.00;97739.81;15274570;19;20613;-58
2023/12/04 19:15:57;;;;;;;4.85;4.10;;;;;;;-1.75;100.00;97734.34;15274790;19;20019;-60
2023/12/04 19:21:25;;;;;;;5.47;4.20;;;;;;;-1.72;100.00;97735.00;15276975;19;20021;-61
2023/12/04 19:26:49;;;;;;;6.30;4.20;;;;;;;-1.69;100.00;97726.00;15263966;19;20364;-62
2023/12/04 19:32:14;;;;;;;5.38;4.53;;;;;;;-1.66;100.00;97707.31;15278124;19;20010;-58
2023/12/04 19:37:42;;;;;;;5.70;4.75;;;;;;;-1.64;100.00;97700.16;15281286;19;20023;-60
2023/12/04 19:43:13;;;;;;;5.18;4.20;;;;;;;-1.62;100.00;97687.69;15277128;19;20044;-59
2023/12/04 19:48:38;;;;;;;5.50;4.70;;;;;;;-1.62;100.00;97685.06;15273315;19;20106;-60
2023/12/04 19:54:05;;;;;;;5.07;4.50;;;;;;;-1.60;100.00;97696.38;15277184;19;20089;-59
2023/12/04 19:59:30;;;;;;;5.63;4.22;;;;;;;-1.60;100.00;97662.03;15259695;19;20045;-52
2023/12/04 20:04:54;;;;;;;4.72;4.22;;;;;;;-1.60;100.00;97667.31;15277474;19;20042;-55
2023/12/04 20:10:22;;;;;;;5.45;4.80;;;;;;;-1.59;100.00;97676.91;15282781;19;20466;-51
2023/12/04 20:15:46;;;;;;;5.50;4.72;;;;;;;-1.61;100.00;97664.75;15283152;19;20039;-54
2023/12/04 20:21:12;;;;;;;5.50;4.50;;;;;;;-1.62;100.00;97671.84;15279064;19;20328;-52
2023/12/04 20:26:39;;;;;;;6.07;5.47;;;;;;;-1.60;100.00;97685.81;15275599;19;20017;-53
2023/12/04 20:32:04;;;;;;;5.75;5.00;;;;;;;-1.60;100.00;97674.38;15270136;19;20011;-51
2023/12/04 20:37:28;;;;;;;5.50;4.75;;;;;;;-1.61;100.00;97670.03;15281521;19;20089;-51
2023/12/04 20:43:02;;;;;;;6.03;5.28;;;;;;;-1.60;100.00;97643.53;15282594;19;20025;-50
2023/12/04 20:48:26;;;;;;;8.88;5.45;;;;;;;-1.58;100.00;97649.53;15281087;19;20014;-51
2023/12/04 20:53:51;;;;;;;5.78;4.93;;;;;;;-1.58;100.00;97646.91;15282955;19;20803;-52
2023/12/04 20:59:18;;;;;;;6.72;5.32;;;;;;;-1.55;100.00;97646.69;15284004;19;20074;-51
2023/12/04 21:04:43;;;;;;;5.72;4.82;;;;;;;-1.54;100.00;97647.56;15288074;19;20015;-51
2023/12/04 21:10:07;;;;;;;5.90;5.10;;;;;;;-1.57;100.00;97648.59;15295609;19;20018;-54
2023/12/04 21:15:35;;;;;;;6.22;4.90;;;;;;;-1.59;100.00;97645.19;15297102;19;21208;-52
2023/12/04 21:20:59;;;;;;;5.95;4.70;;;;;;;-1.64;100.00;97647.31;15292533;19;20015;-52
2023/12/04 21:26:24;;;;;;;7.07;5.65;;;;;;;-1.66;100.00;97635.19;15289895;19;20023;-53
2023/12/04 21:31:52;;;;;;;5.70;4.93;;;;;;;-1.69;100.00;97638.03;15289021;19;20014;-51
2023/12/04 21:37:18;;;;;;;6.18;4.90;;;;;;;-1.71;100.00;97632.84;15289056;19;20018;-54
2023/12/04 21:42:43;;;;;;;5.97;5.20;;;;;;;-1.76;100.00;97622.56;15294177;19;20049;-51
2023/12/04 21:48:11;;;;;;;6.00;5.35;;;;;;;-1.78;100.00;97613.09;15292798;19;20030;-51
2023/12/04 21:53:36;;;;;;;6.55;4.80;;;;;;;-1.83;100.00;97602.84;15293345;19;20354;-53
2023/12/04 21:59:01;;;;;;;6.28;5.13;;;;;;;-1.85;100.00;97602.09;15292796;19;20039;-51
2023/12/04 22:04:39;;;;;;;6.10;4.80;;;;;;;-1.84;100.00;97602.94;15292273;19;20354;-52
2023/12/04 22:10:05;;;;;;;5.97;5.38;;;;;;;-1.87;100.00;97594.28;15286352;19;20015;-50
2023/12/04 22:15:29;;;;;;;6.13;5.28;;;;;;;-1.87;100.00;97596.91;15292333;19;20078;-51
2023/12/04 22:20:57;;;;;;;7.30;5.85;;;;;;;-1.87;100.00;97578.44;15288312;19;20018;-50
2023/12/04 22:26:22;;;;;;;7.40;5.53;;;;;;;-1.84;100.00;97576.53;15288774;19;20015;-50
2023/12/04 22:31:48;;;;;;;6.75;5.57;;;;;;;-1.84;100.00;97573.91;15287199;19;20763;-50
2023/12/04 22:37:16;;;;;;;6.43;5.20;;;;;;;-1.83;100.00;97571.16;15290529;19;20007;-51
2023/12/04 22:42:42;;;;;;;6.95;5.82;;;;;;;-1.83;100.00;97557.13;15285375;19;20018;-50
2023/12/04 22:48:06;;;;;;;7.20;5.65;;;;;;;-1.86;100.00;97566.94;15289381;19;20491;-51
2023/12/04 22:53:34;;;;;;;7.88;5.70;;;;;;;-1.82;100.00;97582.56;15291424;19;20086;-51
2023/12/04 22:58:58;;;;;;;6.80;5.78;;;;;;;-1.82;100.00;97574.66;15287375;19;20018;-50
2023/12/04 23:04:23;;;;;;;7.68;6.40;;;;;;;-1.86;100.00;97572.22;15287323;19;20474;-52
2023/12/04 23:09:50;;;;;;;7.40;6.35;;;;;;;-1.86;100.00;97564.28;15286574;19;20086;-50
2023/12/04 23:15:15;;;;;;;7.10;6.13;;;;;;;-1.86;100.00;97555.50;15282104;19;20018;-49
2023/12/04 23:20:39;;;;;;;7.25;5.88;;;;;;;-1.86;100.00;97543.19;15281453;19;20028;-52
2023/12/04 23:26:07;;;;;;;6.85;5.80;;;;;;;-1.85;100.00;97536.09;15285766;19;20722;-50
2023/12/04 23:31:31;;;;;;;6.47;5.63;;;;;;;-1.83;100.00;97525.44;15004466;19;5001178;-50
2023/12/04 23:36:56;;;;;;;7.80;5.85;;;;;;;-1.83;100.00;97526.25;15286000;19;20011;-52
2023/12/04 23:42:23;;;;;;;7.38;6.15;;;;;;;-1.83;100.00;97517.53;15282108;19;20026;-54
2023/12/04 23:47:48;;;;;;;6.25;5.53;;;;;;;-1.83;100.00;97510.44;15277209;19;20053;-52
2023/12/04 23:53:12;;;;;;;7.88;6.15;;;;;;;-1.81;100.00;97503.25;15283195;19;20037;-50
2023/12/04 23:58:40;;;;;;;7.78;6.03;;;;;;;-1.81;100.00;97502.38;15283556;19;20014;-51
